createdAt,value
2016-07-06T00:00:21.715Z,0
2016-07-06T00:01:21.880Z,0
2016-07-06T00:02:21.165Z,0
2016-07-06T00:03:21.093Z,0
2016-07-06T00:04:22.851Z,0
2016-07-06T00:05:21.142Z,0
2016-07-06T00:06:21.187Z,0
2016-07-06T00:07:21.762Z,0
2016-07-06T00:08:21.158Z,0
2016-07-06T00:09:21.776Z,0
2016-07-06T00:10:21.772Z,0
2016-07-06T00:11:21.175Z,0
2016-07-06T00:12:20.565Z,0
2016-07-06T00:13:21.171Z,0
2016-07-06T00:14:21.192Z,0
2016-07-06T00:15:21.896Z,0
2016-07-06T00:16:21.228Z,0
2016-07-06T00:17:21.554Z,0
2016-07-06T00:18:22.444Z,0
2016-07-06T00:19:23.281Z,0
2016-07-06T00:20:22.442Z,0
2016-07-06T00:21:20.626Z,0
2016-07-06T00:22:20.626Z,0
2016-07-06T00:23:21.234Z,0
2016-07-06T00:24:21.862Z,0
2016-07-06T00:25:21.847Z,0
2016-07-06T00:26:21.999Z,0
2016-07-06T00:27:21.856Z,0
2016-07-06T00:28:21.255Z,0
2016-07-06T00:29:21.865Z,0
2016-07-06T00:30:22.264Z,0
2016-07-06T00:31:20.673Z,0
2016-07-06T00:32:21.907Z,0
2016-07-06T00:33:21.281Z,0
2016-07-06T00:34:21.900Z,0
2016-07-06T00:35:21.296Z,0
2016-07-06T00:36:21.923Z,0
2016-07-06T00:37:21.316Z,0
2016-07-06T00:38:21.337Z,0
2016-07-06T00:39:21.326Z,0
2016-07-06T00:40:21.333Z,0
2016-07-06T00:41:22.909Z,0
2016-07-06T00:42:21.368Z,0
2016-07-06T00:43:21.967Z,0
2016-07-06T00:44:21.963Z,0
2016-07-06T00:45:21.359Z,0
2016-07-06T00:46:22.590Z,0
2016-07-06T00:47:21.382Z,0
2016-07-06T00:48:20.772Z,0
2016-07-06T00:49:21.397Z,0
2016-07-06T00:50:22.861Z,0
2016-07-06T00:51:20.788Z,0
2016-07-06T00:52:21.119Z,0
2016-07-06T00:53:21.378Z,0
2016-07-06T00:54:20.777Z,0
2016-07-06T00:55:22.035Z,0
2016-07-06T00:56:22.042Z,0
2016-07-06T00:57:22.064Z,0
2016-07-06T00:58:20.826Z,0
2016-07-06T00:59:22.112Z,0
2016-07-06T01:00:21.458Z,0
2016-07-06T01:01:21.957Z,0
2016-07-06T01:02:21.517Z,0
2016-07-06T01:03:21.533Z,0
2016-07-06T01:04:21.469Z,0
2016-07-06T01:05:20.868Z,0
2016-07-06T01:06:20.875Z,0
2016-07-06T01:07:20.880Z,0
2016-07-06T01:08:20.249Z,0
2016-07-06T01:09:22.481Z,0
2016-07-06T01:10:22.907Z,0
2016-07-06T01:11:21.752Z,0
2016-07-06T01:12:21.714Z,0
2016-07-06T01:13:22.144Z,0
2016-07-06T01:14:23.840Z,0
2016-07-06T01:15:21.526Z,0
2016-07-06T01:16:22.765Z,0
2016-07-06T01:17:21.547Z,0
2016-07-06T01:18:20.922Z,0
2016-07-06T01:19:20.923Z,0
2016-07-06T01:20:21.571Z,0
2016-07-06T01:21:21.535Z,0
2016-07-06T01:22:21.575Z,0
2016-07-06T01:23:21.585Z,0
2016-07-06T01:24:21.545Z,0
2016-07-06T01:25:23.445Z,0
2016-07-06T01:26:21.589Z,0
2016-07-06T01:27:22.205Z,0
2016-07-06T01:28:22.223Z,0
2016-07-06T01:29:22.198Z,0
2016-07-06T01:30:22.822Z,0
2016-07-06T01:31:22.214Z,0
2016-07-06T01:32:21.618Z,0
2016-07-06T01:33:21.605Z,0
2016-07-06T01:34:22.913Z,0
2016-07-06T01:35:21.647Z,0
2016-07-06T01:36:22.913Z,0
2016-07-06T01:37:21.658Z,0
2016-07-06T01:38:24.014Z,0
2016-07-06T01:39:22.287Z,0
2016-07-06T01:40:21.055Z,0
2016-07-06T01:41:22.291Z,0
2016-07-06T01:42:21.071Z,0
2016-07-06T01:43:22.914Z,0
2016-07-06T01:44:22.916Z,0
2016-07-06T01:45:23.014Z,0
2016-07-06T01:46:22.308Z,0
2016-07-06T01:47:22.548Z,0
2016-07-06T01:48:21.722Z,0
2016-07-06T01:49:21.725Z,0
2016-07-06T01:50:21.727Z,0
2016-07-06T01:51:21.735Z,0
2016-07-06T01:52:22.354Z,0
2016-07-06T01:53:21.108Z,0
2016-07-06T01:54:21.750Z,0
2016-07-06T01:55:21.118Z,0
2016-07-06T01:56:22.561Z,0
2016-07-06T01:57:21.796Z,0
2016-07-06T01:58:21.766Z,0
2016-07-06T01:59:21.828Z,0
2016-07-06T02:00:21.787Z,0
2016-07-06T02:01:23.131Z,0
2016-07-06T02:02:22.415Z,0
2016-07-06T02:03:23.076Z,0
2016-07-06T02:04:21.807Z,0
2016-07-06T02:05:21.826Z,0
2016-07-06T02:06:22.447Z,0
2016-07-06T02:07:22.084Z,0
2016-07-06T02:08:21.219Z,0
2016-07-06T02:09:23.408Z,0
2016-07-06T02:10:23.078Z,0
2016-07-06T02:11:23.039Z,0
2016-07-06T02:12:21.849Z,0
2016-07-06T02:13:21.845Z,0
2016-07-06T02:14:23.083Z,0
2016-07-06T02:15:21.859Z,0
2016-07-06T02:16:22.478Z,0
2016-07-06T02:17:21.887Z,0
2016-07-06T02:18:21.889Z,0
2016-07-06T02:19:22.501Z,0
2016-07-06T02:20:24.132Z,0
2016-07-06T02:21:21.910Z,0
2016-07-06T02:22:22.457Z,0
2016-07-06T02:23:23.139Z,0
2016-07-06T02:24:22.540Z,0
2016-07-06T02:25:22.532Z,0
2016-07-06T02:26:22.544Z,0
2016-07-06T02:27:21.947Z,0
2016-07-06T02:28:22.556Z,0
2016-07-06T02:29:22.923Z,0
2016-07-06T02:30:21.951Z,0
2016-07-06T02:31:22.700Z,0
2016-07-06T02:32:21.337Z,0
2016-07-06T02:33:22.560Z,0
2016-07-06T02:34:21.964Z,0
2016-07-06T02:35:21.959Z,0
2016-07-06T02:36:22.584Z,0
2016-07-06T02:37:22.595Z,0
2016-07-06T02:38:20.769Z,0
2016-07-06T02:39:22.598Z,0
2016-07-06T02:40:23.006Z,0
2016-07-06T02:41:23.256Z,0
2016-07-06T02:42:22.607Z,0
2016-07-06T02:43:22.019Z,0
2016-07-06T02:44:22.226Z,0
2016-07-06T02:45:22.027Z,0
2016-07-06T02:46:22.017Z,0
2016-07-06T02:47:22.012Z,0
2016-07-06T02:48:23.240Z,0
2016-07-06T02:49:21.430Z,0
2016-07-06T02:50:22.031Z,0
2016-07-06T02:51:24.385Z,0
2016-07-06T02:52:22.693Z,0
2016-07-06T02:53:22.384Z,0
2016-07-06T02:54:22.690Z,0
2016-07-06T02:55:22.693Z,0
2016-07-06T02:56:22.088Z,0
2016-07-06T02:57:22.095Z,0
2016-07-06T02:58:21.492Z,0
2016-07-06T02:59:22.106Z,0
2016-07-06T03:00:21.494Z,0
2016-07-06T03:01:22.773Z,0
2016-07-06T03:02:24.393Z,0
2016-07-06T03:03:21.570Z,0
2016-07-06T03:04:22.835Z,0
2016-07-06T03:05:22.139Z,0
2016-07-06T03:06:22.143Z,0
2016-07-06T03:07:22.760Z,0
2016-07-06T03:08:22.767Z,0
2016-07-06T03:09:22.146Z,0
2016-07-06T03:10:22.159Z,0
2016-07-06T03:11:22.774Z,0
2016-07-06T03:12:22.152Z,0
2016-07-06T03:13:23.256Z,0
2016-07-06T03:14:22.181Z,0
2016-07-06T03:15:22.370Z,0
2016-07-06T03:16:22.169Z,0
2016-07-06T03:17:22.169Z,0
2016-07-06T03:18:22.791Z,0
2016-07-06T03:19:23.413Z,0
2016-07-06T03:20:23.415Z,0
2016-07-06T03:21:22.192Z,0
2016-07-06T03:22:22.843Z,0
2016-07-06T03:23:21.607Z,0
2016-07-06T03:24:37.090Z,0
2016-07-06T03:25:20.996Z,0
2016-07-06T03:26:22.252Z,0
2016-07-06T03:27:21.644Z,0
2016-07-06T03:28:23.650Z,0
2016-07-06T03:29:22.885Z,0
2016-07-06T03:30:22.887Z,0
2016-07-06T03:31:21.664Z,0
2016-07-06T03:32:22.299Z,0
2016-07-06T03:33:22.907Z,0
2016-07-06T03:34:22.914Z,0
2016-07-06T03:35:23.930Z,0
2016-07-06T03:36:22.304Z,0
2016-07-06T03:37:22.904Z,0
2016-07-06T03:38:23.540Z,0
2016-07-06T03:39:23.294Z,0
2016-07-06T03:40:22.327Z,0
2016-07-06T03:41:22.322Z,0
2016-07-06T03:42:22.336Z,0
2016-07-06T03:43:22.330Z,0
2016-07-06T03:44:21.735Z,0
2016-07-06T03:45:23.570Z,0
2016-07-06T03:46:22.848Z,0
2016-07-06T03:47:21.736Z,0
2016-07-06T03:48:22.349Z,0
2016-07-06T03:49:22.354Z,0
2016-07-06T03:50:24.075Z,0
2016-07-06T03:51:22.959Z,0
2016-07-06T03:52:21.779Z,0
2016-07-06T03:53:23.014Z,0
2016-07-06T03:54:21.781Z,0
2016-07-06T03:55:22.413Z,0
2016-07-06T03:56:21.797Z,0
2016-07-06T03:57:23.176Z,0
2016-07-06T03:58:22.405Z,0
2016-07-06T03:59:22.408Z,0
2016-07-06T04:00:21.805Z,0
2016-07-06T04:01:23.897Z,0
2016-07-06T04:02:21.801Z,0
2016-07-06T04:03:21.873Z,0
2016-07-06T04:04:22.459Z,0
2016-07-06T04:05:21.850Z,0
2016-07-06T04:06:22.470Z,0
2016-07-06T04:07:23.121Z,0
2016-07-06T04:08:22.475Z,0
2016-07-06T04:09:23.082Z,0
2016-07-06T04:10:22.478Z,0
2016-07-06T04:11:21.256Z,0
2016-07-06T04:12:23.633Z,0
2016-07-06T04:13:23.114Z,0
2016-07-06T04:14:21.883Z,0
2016-07-06T04:15:22.506Z,0
2016-07-06T04:16:21.904Z,0
2016-07-06T04:17:23.134Z,0
2016-07-06T04:18:21.896Z,0
2016-07-06T04:19:22.066Z,0
2016-07-06T04:20:22.526Z,0
2016-07-06T04:21:24.502Z,0
2016-07-06T04:22:23.774Z,0
2016-07-06T04:23:21.947Z,5
2016-07-06T04:24:37.416Z,5
2016-07-06T04:25:23.791Z,5
2016-07-06T04:26:21.967Z,5
2016-07-06T04:27:22.556Z,5
2016-07-06T04:28:22.555Z,5
2016-07-06T04:29:22.550Z,5
2016-07-06T04:30:22.567Z,5
2016-07-06T04:31:22.572Z,5
2016-07-06T04:32:24.435Z,10
2016-07-06T04:33:22.602Z,10
2016-07-06T04:34:23.848Z,10
2016-07-06T04:35:22.616Z,10
2016-07-06T04:36:23.217Z,10
2016-07-06T04:37:22.616Z,10
2016-07-06T04:38:21.401Z,10
2016-07-06T04:39:23.247Z,20
2016-07-06T04:40:22.618Z,15
2016-07-06T04:41:22.612Z,10
2016-07-06T04:42:22.649Z,10
2016-07-06T04:43:22.652Z,10
2016-07-06T04:44:23.268Z,10
2016-07-06T04:45:23.900Z,10
2016-07-06T04:46:23.288Z,10
2016-07-06T04:47:23.278Z,10
2016-07-06T04:48:22.062Z,15
2016-07-06T04:49:22.685Z,20
2016-07-06T04:50:22.672Z,20
2016-07-06T04:51:23.315Z,20
2016-07-06T04:52:23.311Z,20
2016-07-06T04:53:23.305Z,20
2016-07-06T04:54:24.169Z,25
2016-07-06T04:55:22.101Z,25
2016-07-06T04:56:23.061Z,35
2016-07-06T04:57:23.334Z,100
2016-07-06T04:58:22.738Z,375
2016-07-06T04:59:22.733Z,315
2016-07-06T05:00:22.752Z,85
2016-07-06T05:01:22.756Z,55
2016-07-06T05:02:23.421Z,210
2016-07-06T05:03:24.647Z,45
2016-07-06T05:04:22.814Z,40
2016-07-06T05:05:24.108Z,40
2016-07-06T05:06:22.776Z,55
2016-07-06T05:07:23.581Z,130
2016-07-06T05:08:23.398Z,85
2016-07-06T05:09:23.420Z,120
2016-07-06T05:10:22.340Z,180
2016-07-06T05:11:23.430Z,90
2016-07-06T05:12:22.815Z,95
2016-07-06T05:13:22.799Z,115
2016-07-06T05:14:22.841Z,105
2016-07-06T05:15:22.841Z,120
2016-07-06T05:16:24.564Z,615
2016-07-06T05:17:22.239Z,640
2016-07-06T05:18:23.720Z,685
2016-07-06T05:19:23.468Z,180
2016-07-06T05:20:22.882Z,85
2016-07-06T05:21:24.108Z,85
2016-07-06T05:22:24.102Z,145
2016-07-06T05:23:23.509Z,665
2016-07-06T05:24:22.894Z,660
2016-07-06T05:25:23.512Z,745
2016-07-06T05:26:23.527Z,135
2016-07-06T05:27:24.164Z,250
2016-07-06T05:28:22.311Z,740
2016-07-06T05:29:23.020Z,785
2016-07-06T05:30:22.316Z,785
2016-07-06T05:31:22.326Z,815
2016-07-06T05:32:22.947Z,845
2016-07-06T05:33:22.957Z,825
2016-07-06T05:34:23.572Z,815
2016-07-06T05:35:22.972Z,830
2016-07-06T05:36:22.348Z,805
2016-07-06T05:37:22.986Z,785
2016-07-06T05:38:24.764Z,800
2016-07-06T05:39:23.607Z,775
2016-07-06T05:40:23.724Z,800
2016-07-06T05:41:23.003Z,830
2016-07-06T05:42:23.644Z,880
2016-07-06T05:43:22.429Z,900
2016-07-06T05:44:23.041Z,880
2016-07-06T05:45:23.055Z,900
2016-07-06T05:46:23.062Z,935
2016-07-06T05:47:24.607Z,960
2016-07-06T05:48:23.680Z,980
2016-07-06T05:49:24.515Z,975
2016-07-06T05:50:24.324Z,910
2016-07-06T05:51:23.342Z,900
2016-07-06T05:52:23.113Z,915
2016-07-06T05:53:23.734Z,925
2016-07-06T05:54:23.131Z,1030
2016-07-06T05:55:23.145Z,1060
2016-07-06T05:56:23.759Z,1080
2016-07-06T05:57:24.387Z,1030
2016-07-06T05:58:22.551Z,975
2016-07-06T05:59:23.151Z,955
2016-07-06T06:00:24.751Z,980
2016-07-06T06:01:24.417Z,1050
2016-07-06T06:02:23.131Z,1030
2016-07-06T06:03:23.261Z,955
2016-07-06T06:04:23.876Z,990
2016-07-06T06:05:23.221Z,1025
2016-07-06T06:06:23.239Z,1095
2016-07-06T06:07:23.862Z,1070
2016-07-06T06:08:23.254Z,1030
2016-07-06T06:09:22.666Z,1020
2016-07-06T06:10:24.551Z,1055
2016-07-06T06:11:24.699Z,1045
2016-07-06T06:12:23.270Z,1110
2016-07-06T06:13:23.914Z,1130
2016-07-06T06:14:23.931Z,1100
2016-07-06T06:15:23.314Z,1130
2016-07-06T06:16:23.326Z,1145
2016-07-06T06:17:24.563Z,1160
2016-07-06T06:18:23.339Z,1115
2016-07-06T06:19:24.586Z,1095
2016-07-06T06:20:24.471Z,1060
2016-07-06T06:21:24.607Z,1015
2016-07-06T06:22:24.530Z,1050
2016-07-06T06:23:23.397Z,1135
2016-07-06T06:24:24.019Z,1105
2016-07-06T06:25:22.802Z,1170
2016-07-06T06:26:22.815Z,1175
2016-07-06T06:27:23.432Z,1210
2016-07-06T06:28:23.447Z,875
2016-07-06T06:29:23.461Z,245
2016-07-06T06:30:22.846Z,175
2016-07-06T06:31:25.829Z,100
2016-07-06T06:32:24.715Z,85
2016-07-06T06:33:24.315Z,125
2016-07-06T06:34:24.095Z,530
2016-07-06T06:35:24.092Z,1190
2016-07-06T06:36:23.510Z,430
2016-07-06T06:37:22.297Z,675
2016-07-06T06:38:23.518Z,235
2016-07-06T06:39:24.152Z,505
2016-07-06T06:40:24.163Z,180
2016-07-06T06:41:22.942Z,835
2016-07-06T06:42:23.567Z,320
2016-07-06T06:43:24.795Z,545
2016-07-06T06:44:24.605Z,980
2016-07-06T06:45:24.199Z,225
2016-07-06T06:46:23.601Z,215
2016-07-06T06:47:23.606Z,180
2016-07-06T06:48:24.208Z,230
2016-07-06T06:49:24.243Z,200
2016-07-06T06:50:24.225Z,1105
2016-07-06T06:51:22.399Z,1050
2016-07-06T06:52:23.621Z,1260
2016-07-06T06:53:25.232Z,980
2016-07-06T06:54:24.265Z,1320
2016-07-06T06:55:25.128Z,1190
2016-07-06T06:56:23.667Z,1245
2016-07-06T06:57:23.659Z,1245
2016-07-06T06:58:23.687Z,415
2016-07-06T06:59:23.083Z,725
2016-07-06T07:00:23.700Z,400
2016-07-06T07:01:23.690Z,370
2016-07-06T07:02:24.303Z,640
2016-07-06T07:03:24.392Z,380
2016-07-06T07:04:24.729Z,1565
2016-07-06T07:05:24.347Z,910
2016-07-06T07:06:26.605Z,720
2016-07-06T07:07:25.037Z,1105
2016-07-06T07:08:24.382Z,345
2016-07-06T07:09:23.781Z,185
2016-07-06T07:10:23.777Z,175
2016-07-06T07:11:23.830Z,335
2016-07-06T07:12:23.154Z,260
2016-07-06T07:13:24.416Z,705
2016-07-06T07:14:25.019Z,345
2016-07-06T07:15:24.748Z,660
2016-07-06T07:16:24.451Z,1045
2016-07-06T07:17:25.000Z,1800
2016-07-06T07:18:24.455Z,1725
2016-07-06T07:19:23.448Z,1550
2016-07-06T07:20:23.873Z,1550
2016-07-06T07:21:23.879Z,1645
2016-07-06T07:22:24.495Z,1725
2016-07-06T07:23:22.663Z,1695
2016-07-06T07:24:38.748Z,1420
2016-07-06T07:25:23.921Z,1595
2016-07-06T07:26:24.761Z,1665
2016-07-06T07:27:23.936Z,1695
2016-07-06T07:28:24.481Z,1640
2016-07-06T07:29:23.945Z,1710
2016-07-06T07:30:24.002Z,1790
2016-07-06T07:31:23.357Z,1815
2016-07-06T07:32:25.211Z,1805
2016-07-06T07:33:23.998Z,1795
2016-07-06T07:34:24.608Z,1690
2016-07-06T07:35:24.008Z,155
2016-07-06T07:36:24.025Z,135
2016-07-06T07:37:24.791Z,190
2016-07-06T07:38:24.634Z,445
2016-07-06T07:39:26.646Z,340
2016-07-06T07:40:24.673Z,1210
2016-07-06T07:41:24.116Z,870
2016-07-06T07:42:23.455Z,295
2016-07-06T07:43:24.075Z,180
2016-07-06T07:44:24.099Z,205
2016-07-06T07:45:24.098Z,125
2016-07-06T07:46:24.694Z,150
2016-07-06T07:47:24.121Z,150
2016-07-06T07:48:24.131Z,140
2016-07-06T07:49:24.138Z,140
2016-07-06T07:50:26.751Z,135
2016-07-06T07:51:23.538Z,130
2016-07-06T07:52:24.765Z,130
2016-07-06T07:53:25.391Z,125
2016-07-06T07:54:25.682Z,120
2016-07-06T07:55:23.563Z,120
2016-07-06T07:56:24.187Z,100
2016-07-06T07:57:25.416Z,105
2016-07-06T07:58:25.416Z,105
2016-07-06T07:59:25.753Z,125
2016-07-06T08:00:23.585Z,115
2016-07-06T08:01:24.817Z,110
2016-07-06T08:02:24.840Z,110
2016-07-06T08:03:24.230Z,110
2016-07-06T08:04:24.246Z,115
2016-07-06T08:05:24.366Z,115
2016-07-06T08:06:23.656Z,125
2016-07-06T08:07:24.259Z,130
2016-07-06T08:08:24.276Z,120
2016-07-06T08:09:23.414Z,120
2016-07-06T08:10:24.317Z,115
2016-07-06T08:11:23.672Z,115
2016-07-06T08:12:24.617Z,110
2016-07-06T08:13:24.898Z,115
2016-07-06T08:14:24.350Z,110
2016-07-06T08:15:23.692Z,110
2016-07-06T08:16:24.303Z,100
2016-07-06T08:17:23.699Z,115
2016-07-06T08:18:24.928Z,140
2016-07-06T08:19:24.941Z,125
2016-07-06T08:20:24.946Z,120
2016-07-06T08:21:24.938Z,115
2016-07-06T08:22:24.346Z,115
2016-07-06T08:23:25.120Z,115
2016-07-06T08:24:24.375Z,120
2016-07-06T08:25:24.372Z,120
2016-07-06T08:26:24.990Z,125
2016-07-06T08:27:24.408Z,120
2016-07-06T08:28:24.395Z,120
2016-07-06T08:29:25.035Z,125
2016-07-06T08:30:25.033Z,120
2016-07-06T08:31:24.427Z,115
2016-07-06T08:32:25.187Z,125
2016-07-06T08:33:25.046Z,100
2016-07-06T08:34:25.351Z,95
2016-07-06T08:35:23.843Z,110
2016-07-06T08:36:24.459Z,120
2016-07-06T08:37:25.082Z,115
2016-07-06T08:38:24.481Z,135
2016-07-06T08:39:25.103Z,130
2016-07-06T08:40:24.483Z,130
2016-07-06T08:41:23.857Z,145
2016-07-06T08:42:24.502Z,145
2016-07-06T08:43:24.702Z,140
2016-07-06T08:44:24.507Z,130
2016-07-06T08:45:25.112Z,125
2016-07-06T08:46:24.530Z,135
2016-07-06T08:47:26.912Z,130
2016-07-06T08:48:24.538Z,145
2016-07-06T08:49:25.179Z,140
2016-07-06T08:50:24.550Z,135
2016-07-06T08:51:25.179Z,150
2016-07-06T08:52:25.165Z,135
2016-07-06T08:53:25.180Z,125
2016-07-06T08:54:25.077Z,115
2016-07-06T08:55:23.997Z,115
2016-07-06T08:56:25.044Z,115
2016-07-06T08:57:25.216Z,115
2016-07-06T08:58:24.617Z,115
2016-07-06T08:59:24.014Z,120
2016-07-06T09:00:25.242Z,125
2016-07-06T09:01:25.250Z,145
2016-07-06T09:02:25.874Z,140
2016-07-06T09:03:25.265Z,165
2016-07-06T09:04:25.278Z,175
2016-07-06T09:05:25.370Z,170
2016-07-06T09:06:24.671Z,170
2016-07-06T09:07:25.460Z,170
2016-07-06T09:08:24.069Z,165
2016-07-06T09:09:26.854Z,170
2016-07-06T09:10:24.101Z,165
2016-07-06T09:11:24.713Z,140
2016-07-06T09:12:23.501Z,140
2016-07-06T09:13:24.112Z,135
2016-07-06T09:14:24.122Z,150
2016-07-06T09:15:25.979Z,140
2016-07-06T09:16:25.809Z,150
2016-07-06T09:17:25.360Z,135
2016-07-06T09:18:24.894Z,135
2016-07-06T09:19:25.374Z,135
2016-07-06T09:20:26.658Z,130
2016-07-06T09:21:24.158Z,130
2016-07-06T09:22:24.172Z,155
2016-07-06T09:23:24.237Z,135
2016-07-06T09:24:24.531Z,135
2016-07-06T09:25:23.580Z,135
2016-07-06T09:26:24.822Z,125
2016-07-06T09:27:25.774Z,125
2016-07-06T09:28:24.208Z,120
2016-07-06T09:29:24.929Z,120
2016-07-06T09:30:24.225Z,125
2016-07-06T09:31:26.672Z,120
2016-07-06T09:32:26.069Z,135
2016-07-06T09:33:24.238Z,150
2016-07-06T09:34:24.864Z,150
2016-07-06T09:35:26.090Z,145
2016-07-06T09:36:26.108Z,150
2016-07-06T09:37:24.283Z,150
2016-07-06T09:38:25.734Z,160
2016-07-06T09:39:25.502Z,160
2016-07-06T09:40:24.861Z,155
2016-07-06T09:41:24.894Z,150
2016-07-06T09:42:26.665Z,150
2016-07-06T09:43:24.920Z,150
2016-07-06T09:44:24.320Z,140
2016-07-06T09:45:25.562Z,120
2016-07-06T09:46:24.931Z,120
2016-07-06T09:47:24.945Z,135
2016-07-06T09:48:25.558Z,135
2016-07-06T09:49:24.950Z,130
2016-07-06T09:50:25.571Z,130
2016-07-06T09:51:26.865Z,130
2016-07-06T09:52:24.980Z,120
2016-07-06T09:53:26.442Z,120
2016-07-06T09:54:25.006Z,125
2016-07-06T09:55:23.774Z,90
2016-07-06T09:56:26.224Z,90
2016-07-06T09:57:25.628Z,100
2016-07-06T09:58:25.006Z,85
2016-07-06T09:59:25.055Z,85
2016-07-06T10:00:25.657Z,80
2016-07-06T10:01:25.646Z,80
2016-07-06T10:02:26.894Z,115
2016-07-06T10:03:25.045Z,120
2016-07-06T10:04:24.427Z,95
2016-07-06T10:05:24.505Z,85
2016-07-06T10:06:26.346Z,85
2016-07-06T10:07:25.076Z,80
2016-07-06T10:08:25.085Z,100
2016-07-06T10:09:23.855Z,110
2016-07-06T10:10:25.095Z,115
2016-07-06T10:11:25.707Z,115
2016-07-06T10:12:25.108Z,120
2016-07-06T10:13:25.122Z,125
2016-07-06T10:14:25.133Z,125
2016-07-06T10:15:26.488Z,100
2016-07-06T10:16:25.757Z,95
2016-07-06T10:17:24.515Z,95
2016-07-06T10:18:26.377Z,90
2016-07-06T10:19:25.773Z,85
2016-07-06T10:20:23.953Z,80
2016-07-06T10:21:25.794Z,80
2016-07-06T10:22:26.416Z,80
2016-07-06T10:23:24.579Z,85
2016-07-06T10:24:24.878Z,100
2016-07-06T10:25:25.207Z,100
2016-07-06T10:26:26.701Z,110
2016-07-06T10:27:24.584Z,95
2016-07-06T10:28:25.832Z,80
2016-07-06T10:29:26.451Z,80
2016-07-06T10:30:25.239Z,80
2016-07-06T10:31:24.619Z,90
2016-07-06T10:32:24.635Z,115
2016-07-06T10:33:25.262Z,95
2016-07-06T10:34:25.268Z,90
2016-07-06T10:35:25.887Z,85
2016-07-06T10:36:25.285Z,105
2016-07-06T10:37:26.835Z,75
2016-07-06T10:38:25.913Z,85
2016-07-06T10:39:25.312Z,85
2016-07-06T10:40:24.698Z,90
2016-07-06T10:41:25.320Z,115
2016-07-06T10:42:25.323Z,110
2016-07-06T10:43:24.714Z,95
2016-07-06T10:44:25.423Z,110
2016-07-06T10:45:25.342Z,105
2016-07-06T10:46:25.343Z,90
2016-07-06T10:47:25.958Z,90
2016-07-06T10:48:25.367Z,85
2016-07-06T10:49:25.981Z,85
2016-07-06T10:50:25.991Z,80
2016-07-06T10:51:24.770Z,80
2016-07-06T10:52:24.770Z,80
2016-07-06T10:53:26.613Z,80
2016-07-06T10:54:24.886Z,75
2016-07-06T10:55:25.613Z,75
2016-07-06T10:56:28.562Z,70
2016-07-06T10:57:25.310Z,70
2016-07-06T10:58:25.432Z,70
2016-07-06T10:59:25.555Z,65
2016-07-06T11:00:26.047Z,65
2016-07-06T11:01:26.052Z,65
2016-07-06T11:02:25.448Z,65
2016-07-06T11:03:24.846Z,65
2016-07-06T11:04:24.850Z,90
2016-07-06T11:05:24.853Z,95
2016-07-06T11:06:25.925Z,100
2016-07-06T11:07:24.868Z,110
2016-07-06T11:08:26.151Z,105
2016-07-06T11:09:24.896Z,100
2016-07-06T11:10:25.189Z,110
2016-07-06T11:11:26.119Z,110
2016-07-06T11:12:26.119Z,110
2016-07-06T11:13:24.904Z,105
2016-07-06T11:14:24.908Z,105
2016-07-06T11:15:26.760Z,110
2016-07-06T11:16:25.535Z,110
2016-07-06T11:17:27.121Z,90
2016-07-06T11:18:26.176Z,110
2016-07-06T11:19:26.170Z,90
2016-07-06T11:20:26.182Z,95
2016-07-06T11:21:27.485Z,95
2016-07-06T11:22:26.191Z,90
2016-07-06T11:23:24.973Z,100
2016-07-06T11:24:26.209Z,100
2016-07-06T11:25:25.594Z,85
2016-07-06T11:26:26.244Z,85
2016-07-06T11:27:25.614Z,105
2016-07-06T11:28:26.749Z,105
2016-07-06T11:29:26.232Z,95
2016-07-06T11:30:25.928Z,95
2016-07-06T11:31:25.636Z,100
2016-07-06T11:32:24.826Z,80
2016-07-06T11:33:25.634Z,75
2016-07-06T11:34:26.252Z,75
2016-07-06T11:35:25.632Z,95
2016-07-06T11:36:26.243Z,90
2016-07-06T11:37:25.665Z,95
2016-07-06T11:38:25.051Z,80
2016-07-06T11:39:26.827Z,90
2016-07-06T11:40:25.682Z,80
2016-07-06T11:41:26.430Z,80
2016-07-06T11:42:24.476Z,90
2016-07-06T11:43:27.714Z,95
2016-07-06T11:44:24.480Z,95
2016-07-06T11:45:25.710Z,90
2016-07-06T11:46:25.086Z,95
2016-07-06T11:47:25.700Z,85
2016-07-06T11:48:26.944Z,70
2016-07-06T11:49:25.714Z,70
2016-07-06T11:50:26.271Z,70
2016-07-06T11:51:26.344Z,75
2016-07-06T11:52:26.551Z,70
2016-07-06T11:53:26.351Z,75
2016-07-06T11:54:28.022Z,80
2016-07-06T11:55:26.373Z,95
2016-07-06T11:56:25.147Z,95
2016-07-06T11:57:25.159Z,75
2016-07-06T11:58:25.162Z,95
2016-07-06T11:59:26.395Z,75
2016-07-06T12:00:26.399Z,70
2016-07-06T12:01:24.572Z,70
2016-07-06T12:02:25.800Z,90
2016-07-06T12:03:26.340Z,95
2016-07-06T12:04:26.441Z,90
2016-07-06T12:05:25.211Z,80
2016-07-06T12:06:25.242Z,70
2016-07-06T12:07:26.542Z,85
2016-07-06T12:08:26.480Z,85
2016-07-06T12:09:26.471Z,80
2016-07-06T12:10:25.294Z,85
2016-07-06T12:11:26.476Z,80
2016-07-06T12:12:27.231Z,90
2016-07-06T12:13:25.888Z,85
2016-07-06T12:14:26.600Z,90
2016-07-06T12:15:25.891Z,85
2016-07-06T12:16:26.527Z,90
2016-07-06T12:17:25.306Z,100
2016-07-06T12:18:26.537Z,95
2016-07-06T12:19:25.325Z,90
2016-07-06T12:20:26.548Z,85
2016-07-06T12:21:26.551Z,90
2016-07-06T12:22:26.548Z,80
2016-07-06T12:23:24.721Z,75
2016-07-06T12:24:25.339Z,70
2016-07-06T12:25:27.225Z,70
2016-07-06T12:26:24.747Z,80
2016-07-06T12:27:26.440Z,85
2016-07-06T12:28:26.619Z,80
2016-07-06T12:29:26.602Z,90
2016-07-06T12:30:26.630Z,75
2016-07-06T12:31:26.617Z,65
2016-07-06T12:32:26.014Z,65
2016-07-06T12:33:25.424Z,75
2016-07-06T12:34:26.402Z,75
2016-07-06T12:35:27.262Z,80
2016-07-06T12:36:27.007Z,80
2016-07-06T12:37:26.665Z,80
2016-07-06T12:38:25.911Z,80
2016-07-06T12:39:27.295Z,80
2016-07-06T12:40:26.689Z,80
2016-07-06T12:41:26.078Z,80
2016-07-06T12:42:26.094Z,80
2016-07-06T12:43:26.081Z,70
2016-07-06T12:44:26.097Z,65
2016-07-06T12:45:25.489Z,70
2016-07-06T12:46:26.732Z,65
2016-07-06T12:47:27.747Z,65
2016-07-06T12:48:26.724Z,65
2016-07-06T12:49:26.254Z,60
2016-07-06T12:50:26.737Z,60
2016-07-06T12:51:27.375Z,65
2016-07-06T12:52:26.151Z,65
2016-07-06T12:53:26.138Z,80
2016-07-06T12:54:26.774Z,75
2016-07-06T12:55:25.549Z,85
2016-07-06T12:56:26.170Z,90
2016-07-06T12:57:26.196Z,90
2016-07-06T12:58:28.056Z,85
2016-07-06T12:59:27.413Z,80
2016-07-06T13:00:27.614Z,75
2016-07-06T13:01:26.215Z,75
2016-07-06T13:02:26.218Z,70
2016-07-06T13:03:27.442Z,65
2016-07-06T13:04:25.613Z,60
2016-07-06T13:05:25.645Z,60
2016-07-06T13:06:26.236Z,60
2016-07-06T13:07:27.121Z,60
2016-07-06T13:08:25.641Z,60
2016-07-06T13:09:26.262Z,50
2016-07-06T13:10:26.367Z,50
2016-07-06T13:11:27.426Z,45
2016-07-06T13:12:26.276Z,45
2016-07-06T13:13:26.284Z,45
2016-07-06T13:14:26.913Z,45
2016-07-06T13:15:26.912Z,40
2016-07-06T13:16:26.915Z,45
2016-07-06T13:17:26.913Z,45
2016-07-06T13:18:25.991Z,45
2016-07-06T13:19:26.327Z,50
2016-07-06T13:20:26.922Z,50
2016-07-06T13:21:25.096Z,55
2016-07-06T13:22:26.326Z,55
2016-07-06T13:23:25.122Z,60
2016-07-06T13:24:27.574Z,70
2016-07-06T13:25:26.338Z,65
2016-07-06T13:26:25.734Z,65
2016-07-06T13:27:26.980Z,65
2016-07-06T13:28:25.769Z,65
2016-07-06T13:29:26.412Z,60
2016-07-06T13:30:26.362Z,60
2016-07-06T13:31:28.910Z,60
2016-07-06T13:32:25.761Z,60
2016-07-06T13:33:28.357Z,60
2016-07-06T13:34:26.998Z,55
2016-07-06T13:35:27.002Z,55
2016-07-06T13:36:26.421Z,55
2016-07-06T13:37:26.410Z,55
2016-07-06T13:38:26.405Z,55
2016-07-06T13:39:25.809Z,55
2016-07-06T13:40:26.976Z,55
2016-07-06T13:41:27.656Z,55
2016-07-06T13:42:25.977Z,60
2016-07-06T13:43:26.444Z,60
2016-07-06T13:44:28.194Z,60
2016-07-06T13:45:25.848Z,65
2016-07-06T13:46:25.855Z,65
2016-07-06T13:47:27.083Z,65
2016-07-06T13:48:27.092Z,65
2016-07-06T13:49:27.094Z,65
2016-07-06T13:50:26.503Z,65
2016-07-06T13:51:27.985Z,65
2016-07-06T13:52:26.511Z,70
2016-07-06T13:53:25.962Z,65
2016-07-06T13:54:26.538Z,65
2016-07-06T13:55:27.819Z,65
2016-07-06T13:56:26.548Z,70
2016-07-06T13:57:26.569Z,70
2016-07-06T13:58:27.193Z,70
2016-07-06T13:59:27.195Z,65
2016-07-06T14:00:26.588Z,70
2016-07-06T14:01:27.215Z,70
2016-07-06T14:02:26.903Z,70
2016-07-06T14:03:26.605Z,65
2016-07-06T14:04:26.640Z,70
2016-07-06T14:05:26.010Z,70
2016-07-06T14:06:27.592Z,70
2016-07-06T14:07:26.017Z,70
2016-07-06T14:08:26.690Z,60
2016-07-06T14:09:26.628Z,60
2016-07-06T14:10:26.677Z,60
2016-07-06T14:11:26.879Z,65